sensor_id;sensor_type;location;lat;lon;timestamp;pressure;altitude;pressure_sealevel;temperature;humidity
59272;BME280;45043;51.068;7.026;2022-12-20T00:00:46;100480.28;;;7.02;60.56
59272;BME280;45043;51.068;7.026;2022-12-20T00:03:51;100491.13;;;7.07;60.20
59272;BME280;45043;51.068;7.026;2022-12-20T00:06:52;100477.75;;;7.08;60.31
59272;BME280;45043;51.068;7.026;2022-12-20T00:09:52;100470.69;;;7.01;60.47
59272;BME280;45043;51.068;7.026;2022-12-20T00:12:53;100456.66;;;7.00;60.40
59272;BME280;45043;51.068;7.026;2022-12-20T00:16:04;100469.00;;;7.08;60.25
59272;BME280;45043;51.068;7.026;2022-12-20T00:19:06;100463.91;;;7.06;60.53
59272;BME280;45043;51.068;7.026;2022-12-20T00:22:06;100457.81;;;7.06;60.49
59272;BME280;45043;51.068;7.026;2022-12-20T00:25:07;100461.56;;;7.11;60.53
59272;BME280;45043;51.068;7.026;2022-12-20T00:28:07;100437.50;;;7.06;60.48
59272;BME280;45043;51.068;7.026;2022-12-20T00:31:09;100445.53;;;7.13;60.52
59272;BME280;45043;51.068;7.026;2022-12-20T00:34:10;100428.41;;;7.09;60.64
59272;BME280;45043;51.068;7.026;2022-12-20T00:37:11;100424.44;;;7.05;60.68
59272;BME280;45043;51.068;7.026;2022-12-20T00:40:11;100420.47;;;7.09;61.09
59272;BME280;45043;51.068;7.026;2022-12-20T00:43:12;100429.38;;;7.08;61.15
59272;BME280;45043;51.068;7.026;2022-12-20T00:46:14;100425.38;;;7.12;61.35
59272;BME280;45043;51.068;7.026;2022-12-20T00:49:14;100425.84;;;7.16;61.13
59272;BME280;45043;51.068;7.026;2022-12-20T00:52:15;100410.53;;;7.11;61.29
59272;BME280;45043;51.068;7.026;2022-12-20T00:55:16;100427.34;;;7.18;61.49
59272;BME280;45043;51.068;7.026;2022-12-20T00:58:17;100458.16;;;7.26;61.26
59272;BME280;45043;51.068;7.026;2022-12-20T01:01:37;100458.16;;;7.26;61.39
59272;BME280;45043;51.068;7.026;2022-12-20T01:04:38;100466.56;;;7.29;61.76
59272;BME280;45043;51.068;7.026;2022-12-20T01:07:38;100475.16;;;7.31;61.61
59272;BME280;45043;51.068;7.026;2022-12-20T01:10:39;100455.81;;;7.31;61.81
59272;BME280;45043;51.068;7.026;2022-12-20T01:13:41;100463.94;;;7.29;61.93
59272;BME280;45043;51.068;7.026;2022-12-20T01:16:44;100472.50;;;7.31;61.98
59272;BME280;45043;51.068;7.026;2022-12-20T01:19:47;100474.50;;;7.29;62.24
59272;BME280;45043;51.068;7.026;2022-12-20T01:22:48;100467.91;;;7.25;62.37
59272;BME280;45043;51.068;7.026;2022-12-20T01:25:50;100457.69;;;7.22;62.39
59272;BME280;45043;51.068;7.026;2022-12-20T01:28:53;100453.09;;;7.16;62.41
59272;BME280;45043;51.068;7.026;2022-12-20T01:31:53;100452.34;;;7.07;62.70
59272;BME280;45043;51.068;7.026;2022-12-20T01:34:54;100439.00;;;7.01;63.19
59272;BME280;45043;51.068;7.026;2022-12-20T01:37:54;100436.88;;;6.96;63.25
59272;BME280;45043;51.068;7.026;2022-12-20T01:40:55;100448.25;;;6.97;63.30
59272;BME280;45043;51.068;7.026;2022-12-20T01:46:58;100430.31;;;6.92;63.73
59272;BME280;45043;51.068;7.026;2022-12-20T01:50:00;100439.84;;;6.93;63.65
59272;BME280;45043;51.068;7.026;2022-12-20T01:53:02;100422.19;;;6.94;63.93
59272;BME280;45043;51.068;7.026;2022-12-20T01:56:06;100433.75;;;6.93;63.93
59272;BME280;45043;51.068;7.026;2022-12-20T01:59:07;100431.47;;;6.90;63.97
59272;BME280;45043;51.068;7.026;2022-12-20T02:02:10;100439.09;;;6.84;63.98
59272;BME280;45043;51.068;7.026;2022-12-20T02:05:12;100442.03;;;6.81;64.18
59272;BME280;45043;51.068;7.026;2022-12-20T02:08:16;100433.28;;;6.81;64.17
59272;BME280;45043;51.068;7.026;2022-12-20T02:11:42;100447.38;;;6.73;63.77
59272;BME280;45043;51.068;7.026;2022-12-20T02:21:01;100426.25;;;6.73;63.78
59272;BME280;45043;51.068;7.026;2022-12-20T02:31:10;100393.31;;;6.61;64.17
59272;BME280;45043;51.068;7.026;2022-12-20T02:34:12;100392.66;;;6.59;64.19
59272;BME280;45043;51.068;7.026;2022-12-20T02:37:14;100400.75;;;6.57;64.44
59272;BME280;45043;51.068;7.026;2022-12-20T02:40:18;100402.72;;;6.55;64.39
59272;BME280;45043;51.068;7.026;2022-12-20T02:43:21;100390.69;;;6.53;64.51
59272;BME280;45043;51.068;7.026;2022-12-20T02:46:42;100393.38;;;6.45;65.02
59272;BME280;45043;51.068;7.026;2022-12-20T02:49:43;100385.78;;;6.42;65.41
59272;BME280;45043;51.068;7.026;2022-12-20T02:52:45;100387.47;;;6.43;65.05
59272;BME280;45043;51.068;7.026;2022-12-20T02:55:50;100378.53;;;6.44;65.49
59272;BME280;45043;51.068;7.026;2022-12-20T02:58:57;100381.34;;;6.42;65.68
59272;BME280;45043;51.068;7.026;2022-12-20T03:02:01;100392.06;;;6.41;65.84
59272;BME280;45043;51.068;7.026;2022-12-20T03:05:02;100390.44;;;6.39;65.78
59272;BME280;45043;51.068;7.026;2022-12-20T03:08:03;100385.16;;;6.39;65.90
59272;BME280;45043;51.068;7.026;2022-12-20T03:11:03;100390.09;;;6.34;66.53
59272;BME280;45043;51.068;7.026;2022-12-20T03:14:05;100381.56;;;6.32;66.24
59272;BME280;45043;51.068;7.026;2022-12-20T03:17:07;100396.22;;;6.35;66.51
59272;BME280;45043;51.068;7.026;2022-12-20T03:20:08;100404.44;;;6.40;66.31
59272;BME280;45043;51.068;7.026;2022-12-20T03:23:10;100387.13;;;6.37;66.39
59272;BME280;45043;51.068;7.026;2022-12-20T03:26:11;100384.81;;;6.43;66.35
59272;BME280;45043;51.068;7.026;2022-12-20T03:29:18;100393.38;;;6.45;66.26
59272;BME280;45043;51.068;7.026;2022-12-20T03:32:19;100401.28;;;6.45;66.33
59272;BME280;45043;51.068;7.026;2022-12-20T03:35:20;100397.31;;;6.49;66.27
59272;BME280;45043;51.068;7.026;2022-12-20T03:38:20;100399.78;;;6.50;66.67
59272;BME280;45043;51.068;7.026;2022-12-20T03:41:21;100391.69;;;6.52;66.32
59272;BME280;45043;51.068;7.026;2022-12-20T03:44:22;100389.88;;;6.52;66.25
59272;BME280;45043;51.068;7.026;2022-12-20T03:47:24;100395.97;;;6.53;66.30
59272;BME280;45043;51.068;7.026;2022-12-20T03:50:25;100401.59;;;6.50;66.24
59272;BME280;45043;51.068;7.026;2022-12-20T03:53:26;100391.69;;;6.52;66.29
59272;BME280;45043;51.068;7.026;2022-12-20T03:56:27;100400.09;;;6.55;66.22
59272;BME280;45043;51.068;7.026;2022-12-20T03:59:27;100406.03;;;6.57;66.34
59272;BME280;45043;51.068;7.026;2022-12-20T04:02:28;100393.69;;;6.50;66.69
59272;BME280;45043;51.068;7.026;2022-12-20T04:05:29;100406.38;;;6.54;66.23
59272;BME280;45043;51.068;7.026;2022-12-20T04:08:30;100397.78;;;6.52;66.76
59272;BME280;45043;51.068;7.026;2022-12-20T04:11:32;100411.66;;;6.54;66.85
59272;BME280;45043;51.068;7.026;2022-12-20T04:14:40;100408.69;;;6.49;66.87
59272;BME280;45043;51.068;7.026;2022-12-20T04:17:41;100415.97;;;6.47;67.05
59272;BME280;45043;51.068;7.026;2022-12-20T04:20:42;100399.66;;;6.44;67.33
59272;BME280;45043;51.068;7.026;2022-12-20T04:23:52;100402.97;;;6.37;67.53
59272;BME280;45043;51.068;7.026;2022-12-20T04:26:53;100414.84;;;6.33;67.71
59272;BME280;45043;51.068;7.026;2022-12-20T04:29:53;100392.44;;;6.29;68.06
59272;BME280;45043;51.068;7.026;2022-12-20T04:32:54;100389.97;;;6.28;67.93
59272;BME280;45043;51.068;7.026;2022-12-20T04:35:56;100381.88;;;6.29;68.18
59272;BME280;45043;51.068;7.026;2022-12-20T04:38:58;100386.16;;;6.30;68.32
59272;BME280;45043;51.068;7.026;2022-12-20T04:41:58;100383.88;;;6.27;68.35
59272;BME280;45043;51.068;7.026;2022-12-20T04:44:59;100374.84;;;6.13;68.43
59272;BME280;45043;51.068;7.026;2022-12-20T04:48:02;100392.97;;;6.25;68.74
59272;BME280;45043;51.068;7.026;2022-12-20T04:51:09;100388.50;;;6.25;68.72
59272;BME280;45043;51.068;7.026;2022-12-20T04:54:10;100369.72;;;6.20;69.04
59272;BME280;45043;51.068;7.026;2022-12-20T04:57:24;100367.69;;;6.30;68.88
59272;BME280;45043;51.068;7.026;2022-12-20T05:00:24;100360.44;;;6.32;68.94
59272;BME280;45043;51.068;7.026;2022-12-20T05:03:33;100356.50;;;6.28;68.82
59272;BME280;45043;51.068;7.026;2022-12-20T05:06:33;100360.31;;;6.26;69.50
59272;BME280;45043;51.068;7.026;2022-12-20T05:09:34;100360.31;;;6.26;68.94
59272;BME280;45043;51.068;7.026;2022-12-20T05:12:34;100349.44;;;6.21;69.36
59272;BME280;45043;51.068;7.026;2022-12-20T05:15:37;100360.78;;;6.29;69.35
59272;BME280;45043;51.068;7.026;2022-12-20T05:18:38;100350.91;;;6.23;69.16
59272;BME280;45043;51.068;7.026;2022-12-20T05:21:40;100346.28;;;6.25;69.28
59272;BME280;45043;51.068;7.026;2022-12-20T05:24:59;100338.19;;;6.27;69.10
59272;BME280;45043;51.068;7.026;2022-12-20T05:28:18;100331.75;;;6.29;69.09
59272;BME280;45043;51.068;7.026;2022-12-20T05:31:19;100339.34;;;6.32;68.96
59272;BME280;45043;51.068;7.026;2022-12-20T05:34:20;100329.41;;;6.34;69.12
59272;BME280;45043;51.068;7.026;2022-12-20T05:37:25;100327.63;;;6.35;69.00
59272;BME280;45043;51.068;7.026;2022-12-20T05:40:26;100311.66;;;6.28;68.47
59272;BME280;45043;51.068;7.026;2022-12-20T05:43:26;100321.50;;;6.34;68.78
59272;BME280;45043;51.068;7.026;2022-12-20T05:46:27;100324.00;;;6.36;68.69
59272;BME280;45043;51.068;7.026;2022-12-20T05:49:33;100316.53;;;6.39;68.54
59272;BME280;45043;51.068;7.026;2022-12-20T05:52:36;100320.00;;;6.40;68.48
59272;BME280;45043;51.068;7.026;2022-12-20T05:55:37;100326.09;;;6.41;68.19
59272;BME280;45043;51.068;7.026;2022-12-20T05:58:40;100326.03;;;6.57;68.18
59272;BME280;45043;51.068;7.026;2022-12-20T06:01:42;100319.47;;;6.76;67.15
59272;BME280;45043;51.068;7.026;2022-12-20T06:04:43;100304.34;;;6.93;66.31
59272;BME280;45043;51.068;7.026;2022-12-20T06:07:50;100312.34;;;7.07;65.99
59272;BME280;45043;51.068;7.026;2022-12-20T06:10:52;100310.44;;;7.16;65.38
59272;BME280;45043;51.068;7.026;2022-12-20T06:13:54;100297.53;;;7.21;65.10
59272;BME280;45043;51.068;7.026;2022-12-20T06:16:54;100294.88;;;7.21;64.12
59272;BME280;45043;51.068;7.026;2022-12-20T06:19:55;100305.50;;;7.51;64.03
59272;BME280;45043;51.068;7.026;2022-12-20T06:22:56;100309.66;;;7.68;63.61
59272;BME280;45043;51.068;7.026;2022-12-20T06:25:56;100307.25;;;7.73;62.73
59272;BME280;45043;51.068;7.026;2022-12-20T06:28:59;100317.03;;;7.88;62.08
59272;BME280;45043;51.068;7.026;2022-12-20T06:32:10;100302.25;;;7.93;61.94
59272;BME280;45043;51.068;7.026;2022-12-20T06:35:12;100303.44;;;7.91;61.84
59272;BME280;45043;51.068;7.026;2022-12-20T06:38:13;100309.66;;;7.83;61.87
59272;BME280;45043;51.068;7.026;2022-12-20T06:41:14;100301.06;;;7.66;62.29
59272;BME280;45043;51.068;7.026;2022-12-20T06:44:14;100302.06;;;7.50;62.68
59272;BME280;45043;51.068;7.026;2022-12-20T06:47:15;100298.03;;;7.40;63.02
59272;BME280;45043;51.068;7.026;2022-12-20T06:50:16;100291.00;;;7.32;62.88
59272;BME280;45043;51.068;7.026;2022-12-20T06:53:16;100277.03;;;7.23;63.20
59272;BME280;45043;51.068;7.026;2022-12-20T06:56:17;100277.41;;;7.20;63.35
59272;BME280;45043;51.068;7.026;2022-12-20T06:59:18;100276.28;;;7.15;62.98
59272;BME280;45043;51.068;7.026;2022-12-20T07:02:18;100276.34;;;7.06;63.43
59272;BME280;45043;51.068;7.026;2022-12-20T07:05:18;100267.63;;;7.06;64.03
59272;BME280;45043;51.068;7.026;2022-12-20T07:08:20;100256.25;;;7.05;63.64
59272;BME280;45043;51.068;7.026;2022-12-20T07:11:20;100257.88;;;7.06;63.68
59272;BME280;45043;51.068;7.026;2022-12-20T07:14:21;100255.78;;;7.02;63.55
59272;BME280;45043;51.068;7.026;2022-12-20T07:17:21;100273.25;;;7.03;63.65
59272;BME280;45043;51.068;7.026;2022-12-20T07:20:21;100265.50;;;7.01;63.65
59272;BME280;45043;51.068;7.026;2022-12-20T07:23:22;100260.13;;;6.95;63.76
59272;BME280;45043;51.068;7.026;2022-12-20T07:26:22;100265.41;;;6.95;63.78
59272;BME280;45043;51.068;7.026;2022-12-20T07:29:23;100249.63;;;7.01;63.51
59272;BME280;45043;51.068;7.026;2022-12-20T07:32:25;100270.53;;;7.11;63.25
59272;BME280;45043;51.068;7.026;2022-12-20T07:35:25;100266.53;;;7.15;63.13
59272;BME280;45043;51.068;7.026;2022-12-20T07:38:26;100267.88;;;7.11;63.34
59272;BME280;45043;51.068;7.026;2022-12-20T07:41:26;100251.88;;;7.13;63.24
59272;BME280;45043;51.068;7.026;2022-12-20T07:44:27;100247.31;;;7.06;63.20
59272;BME280;45043;51.068;7.026;2022-12-20T07:47:28;100234.25;;;7.05;63.07
59272;BME280;45043;51.068;7.026;2022-12-20T07:50:31;100238.22;;;7.09;63.76
59272;BME280;45043;51.068;7.026;2022-12-20T07:53:35;100237.09;;;7.03;64.00
59272;BME280;45043;51.068;7.026;2022-12-20T07:56:40;100239.28;;;7.00;63.97
59272;BME280;45043;51.068;7.026;2022-12-20T07:59:46;100251.13;;;7.04;64.04
59272;BME280;45043;51.068;7.026;2022-12-20T08:03:01;100256.94;;;6.99;64.06
59272;BME280;45043;51.068;7.026;2022-12-20T08:06:06;100249.94;;;7.06;64.08
59272;BME280;45043;51.068;7.026;2022-12-20T08:09:10;100247.41;;;7.13;63.83
59272;BME280;45043;51.068;7.026;2022-12-20T08:12:15;100246.06;;;7.17;63.49
59272;BME280;45043;51.068;7.026;2022-12-20T08:15:17;100264.81;;;7.22;63.43
59272;BME280;45043;51.068;7.026;2022-12-20T08:18:18;100264.66;;;7.24;63.34
59272;BME280;45043;51.068;7.026;2022-12-20T08:21:18;100256.19;;;7.28;63.47
59272;BME280;45043;51.068;7.026;2022-12-20T08:24:19;100245.97;;;7.25;62.84
59272;BME280;45043;51.068;7.026;2022-12-20T08:27:20;100254.16;;;7.30;63.26
59272;BME280;45043;51.068;7.026;2022-12-20T08:30:20;100249.25;;;7.27;62.93
59272;BME280;45043;51.068;7.026;2022-12-20T08:33:21;100236.47;;;7.31;62.91
59272;BME280;45043;51.068;7.026;2022-12-20T08:36:21;100244.34;;;7.24;62.96
59272;BME280;45043;51.068;7.026;2022-12-20T08:39:22;100238.69;;;7.27;62.93
59272;BME280;45043;51.068;7.026;2022-12-20T08:42:22;100233.81;;;7.16;63.17
59272;BME280;45043;51.068;7.026;2022-12-20T08:45:23;100230.00;;;7.19;63.06
59272;BME280;45043;51.068;7.026;2022-12-20T08:48:23;100234.66;;;7.02;63.38
59272;BME280;45043;51.068;7.026;2022-12-20T08:51:24;100230.19;;;7.02;63.39
59272;BME280;45043;51.068;7.026;2022-12-20T08:54:24;100247.19;;;7.00;63.85
59272;BME280;45043;51.068;7.026;2022-12-20T08:57:24;100236.63;;;7.00;63.65
59272;BME280;45043;51.068;7.026;2022-12-20T09:00:25;100244.91;;;6.97;63.62
59272;BME280;45043;51.068;7.026;2022-12-20T09:03:28;100241.28;;;6.98;63.68
59272;BME280;45043;51.068;7.026;2022-12-20T09:06:29;100247.72;;;6.95;63.50
59272;BME280;45043;51.068;7.026;2022-12-20T09:09:29;100247.19;;;7.00;63.70
59272;BME280;45043;51.068;7.026;2022-12-20T09:12:30;100243.94;;;6.98;63.60
59272;BME280;45043;51.068;7.026;2022-12-20T09:15:33;100236.63;;;7.00;63.67
59272;BME280;45043;51.068;7.026;2022-12-20T09:18:34;100239.81;;;6.95;63.70
59272;BME280;45043;51.068;7.026;2022-12-20T09:21:34;100247.19;;;7.00;63.57
59272;BME280;45043;51.068;7.026;2022-12-20T09:24:36;100246.19;;;7.01;63.56
59272;BME280;45043;51.068;7.026;2022-12-20T09:27:42;100246.38;;;6.99;63.65
59272;BME280;45043;51.068;7.026;2022-12-20T09:30:43;100246.56;;;6.98;63.54
59272;BME280;45043;51.068;7.026;2022-12-20T09:33:44;100257.28;;;6.96;63.86
59272;BME280;45043;51.068;7.026;2022-12-20T09:36:44;100251.00;;;6.97;64.07
59272;BME280;45043;51.068;7.026;2022-12-20T09:39:48;100241.44;;;6.96;64.03
59272;BME280;45043;51.068;7.026;2022-12-20T09:42:51;100246.44;;;6.91;64.40
59272;BME280;45043;51.068;7.026;2022-12-20T09:46:02;100245.44;;;6.92;64.52
59272;BME280;45043;51.068;7.026;2022-12-20T09:49:03;100242.34;;;6.89;64.86
59272;BME280;45043;51.068;7.026;2022-12-20T09:52:23;100239.06;;;6.86;64.82
59272;BME280;45043;51.068;7.026;2022-12-20T09:55:37;100234.06;;;6.92;64.93
59272;BME280;45043;51.068;7.026;2022-12-20T09:58:59;100236.97;;;6.97;64.47
59272;BME280;45043;51.068;7.026;2022-12-20T10:02:01;100235.34;;;6.96;64.73
59272;BME280;45043;51.068;7.026;2022-12-20T10:05:01;100240.91;;;7.01;64.64
59272;BME280;45043;51.068;7.026;2022-12-20T10:24:28;100208.06;;;7.18;64.72
59272;BME280;45043;51.068;7.026;2022-12-20T10:27:29;100208.25;;;7.17;64.51
59272;BME280;45043;51.068;7.026;2022-12-20T10:30:32;100209.06;;;7.17;65.18
59272;BME280;45043;51.068;7.026;2022-12-20T10:33:34;100207.78;;;7.13;65.26
59272;BME280;45043;51.068;7.026;2022-12-20T10:36:36;100203.78;;;7.17;65.23
59272;BME280;45043;51.068;7.026;2022-12-20T10:39:46;100190.69;;;7.24;65.15
59272;BME280;45043;51.068;7.026;2022-12-20T10:42:48;100187.47;;;7.28;65.24
59272;BME280;45043;51.068;7.026;2022-12-20T10:46:05;100180.56;;;7.27;64.96
59272;BME280;45043;51.068;7.026;2022-12-20T10:52:27;100173.34;;;7.36;64.76
59272;BME280;45043;51.068;7.026;2022-12-20T10:55:35;100164.88;;;7.41;64.46
59272;BME280;45043;51.068;7.026;2022-12-20T10:58:37;100166.59;;;7.48;64.46
59272;BME280;45043;51.068;7.026;2022-12-20T11:01:45;100166.88;;;7.53;64.18
59272;BME280;45043;51.068;7.026;2022-12-20T11:08:15;100144.81;;;7.61;64.01
59272;BME280;45043;51.068;7.026;2022-12-20T11:11:22;100147.72;;;7.66;63.73
59272;BME280;45043;51.068;7.026;2022-12-20T11:14:23;100135.50;;;7.65;63.54
59272;BME280;45043;51.068;7.026;2022-12-20T11:27:17;100123.09;;;7.66;63.00
59272;BME280;45043;51.068;7.026;2022-12-20T11:30:22;100127.81;;;7.70;62.96
59272;BME280;45043;51.068;7.026;2022-12-20T11:40:30;100120.78;;;7.77;62.40
59272;BME280;45043;51.068;7.026;2022-12-20T11:47:06;100102.72;;;7.81;62.58
59272;BME280;45043;51.068;7.026;2022-12-20T11:53:38;100088.84;;;7.79;62.24
59272;BME280;45043;51.068;7.026;2022-12-20T11:56:46;100097.25;;;7.82;62.16
59272;BME280;45043;51.068;7.026;2022-12-20T11:59:55;100102.34;;;7.84;62.11
59272;BME280;45043;51.068;7.026;2022-12-20T12:03:18;100095.25;;;7.84;62.21
59272;BME280;45043;51.068;7.026;2022-12-20T12:06:30;100088.13;;;7.85;62.30
59272;BME280;45043;51.068;7.026;2022-12-20T12:13:14;100084.13;;;7.74;62.63
59272;BME280;45043;51.068;7.026;2022-12-20T12:16:39;100088.03;;;7.78;61.84
59272;BME280;45043;51.068;7.026;2022-12-20T12:19:45;100090.16;;;7.83;62.25
59272;BME280;45043;51.068;7.026;2022-12-20T12:22:50;100091.41;;;7.87;62.22
59272;BME280;45043;51.068;7.026;2022-12-20T12:25:52;100092.03;;;7.89;62.20
59272;BME280;45043;51.068;7.026;2022-12-20T12:28:59;100094.94;;;7.94;61.75
59272;BME280;45043;51.068;7.026;2022-12-20T12:32:04;100107.03;;;8.03;61.50
59272;BME280;45043;51.068;7.026;2022-12-20T12:38:43;100100.53;;;8.06;61.83
59272;BME280;45043;51.068;7.026;2022-12-20T12:45:20;100084.84;;;8.04;62.53
59272;BME280;45043;51.068;7.026;2022-12-20T12:51:38;100093.59;;;8.05;63.30
59272;BME280;45043;51.068;7.026;2022-12-20T12:54:40;100093.16;;;8.01;63.53
59272;BME280;45043;51.068;7.026;2022-12-20T12:57:56;100075.22;;;7.97;63.89
59272;BME280;45043;51.068;7.026;2022-12-20T13:01:03;100080.50;;;7.97;64.02
59272;BME280;45043;51.068;7.026;2022-12-20T13:04:22;100078.06;;;7.95;64.06
59272;BME280;45043;51.068;7.026;2022-12-20T13:13:33;100071.44;;;7.84;64.93
59272;BME280;45043;51.068;7.026;2022-12-20T13:16:35;100067.78;;;7.86;64.99
59272;BME280;45043;51.068;7.026;2022-12-20T13:19:38;100074.66;;;7.80;65.22
59272;BME280;45043;51.068;7.026;2022-12-20T13:22:38;100066.00;;;7.71;65.42
59272;BME280;45043;51.068;7.026;2022-12-20T13:25:49;100064.00;;;7.73;65.40
59272;BME280;45043;51.068;7.026;2022-12-20T13:28:53;100059.66;;;7.66;65.65
59272;BME280;45043;51.068;7.026;2022-12-20T13:31:54;100054.66;;;7.56;66.10
59272;BME280;45043;51.068;7.026;2022-12-20T13:34:56;100051.88;;;7.64;65.86
59272;BME280;45043;51.068;7.026;2022-12-20T13:38:00;100037.84;;;7.64;65.68
59272;BME280;45043;51.068;7.026;2022-12-20T13:44:41;100045.91;;;7.55;65.69
59272;BME280;45043;51.068;7.026;2022-12-20T13:47:45;100053.69;;;7.57;65.84
59272;BME280;45043;51.068;7.026;2022-12-20T13:50:50;100053.28;;;7.60;65.80
59272;BME280;45043;51.068;7.026;2022-12-20T13:53:53;100049.66;;;7.61;65.85
59272;BME280;45043;51.068;7.026;2022-12-20T13:56:57;100049.25;;;7.64;65.85
59272;BME280;45043;51.068;7.026;2022-12-20T14:00:02;100052.72;;;7.65;65.47
59272;BME280;45043;51.068;7.026;2022-12-20T14:03:24;100046.34;;;7.59;65.62
59272;BME280;45043;51.068;7.026;2022-12-20T14:06:25;100046.94;;;7.54;65.56
59272;BME280;45043;51.068;7.026;2022-12-20T14:09:35;100038.22;;;7.60;65.58
59272;BME280;45043;51.068;7.026;2022-12-20T14:12:43;100038.22;;;7.60;65.20
59272;BME280;45043;51.068;7.026;2022-12-20T14:15:44;100045.16;;;7.62;65.45
59272;BME280;45043;51.068;7.026;2022-12-20T14:19:05;100038.31;;;7.67;65.21
59272;BME280;45043;51.068;7.026;2022-12-20T14:22:09;100047.91;;;7.68;65.04
59272;BME280;45043;51.068;7.026;2022-12-20T14:25:14;100051.16;;;7.70;65.00
59272;BME280;45043;51.068;7.026;2022-12-20T14:28:26;100058.72;;;7.73;65.23
59272;BME280;45043;51.068;7.026;2022-12-20T14:34:33;100047.31;;;7.73;65.52
59272;BME280;45043;51.068;7.026;2022-12-20T14:37:37;100046.06;;;7.69;65.31
59272;BME280;45043;51.068;7.026;2022-12-20T14:40:40;100041.59;;;7.69;65.54
59272;BME280;45043;51.068;7.026;2022-12-20T14:43:42;100032.56;;;7.64;65.77
59272;BME280;45043;51.068;7.026;2022-12-20T14:46:50;100024.84;;;7.62;65.64
59272;BME280;45043;51.068;7.026;2022-12-20T14:49:55;100025.66;;;7.63;65.59
59272;BME280;45043;51.068;7.026;2022-12-20T14:52:57;100014.25;;;7.62;65.93
59272;BME280;45043;51.068;7.026;2022-12-20T14:55:58;100014.63;;;7.59;65.85
59272;BME280;45043;51.068;7.026;2022-12-20T14:59:10;100021.31;;;7.55;65.78
59272;BME280;45043;51.068;7.026;2022-12-20T15:08:38;100012.00;;;7.59;65.96
59272;BME280;45043;51.068;7.026;2022-12-20T15:11:41;100001.63;;;7.57;66.04
59272;BME280;45043;51.068;7.026;2022-12-20T15:14:42;100003.44;;;7.57;65.83
59272;BME280;45043;51.068;7.026;2022-12-20T15:17:43;100001.63;;;7.57;65.99
59272;BME280;45043;51.068;7.026;2022-12-20T15:20:48;100006.13;;;7.64;65.85
59272;BME280;45043;51.068;7.026;2022-12-20T15:23:50;100015.53;;;7.66;65.84
59272;BME280;45043;51.068;7.026;2022-12-20T15:26:52;100005.97;;;7.65;65.83
59272;BME280;45043;51.068;7.026;2022-12-20T15:29:53;100004.13;;;7.66;65.90
59272;BME280;45043;51.068;7.026;2022-12-20T15:32:53;99999.59;;;7.59;65.84
59272;BME280;45043;51.068;7.026;2022-12-20T15:35:54;100005.25;;;7.56;65.90
59272;BME280;45043;51.068;7.026;2022-12-20T15:38:55;99998.78;;;7.59;66.03
59272;BME280;45043;51.068;7.026;2022-12-20T15:41:59;99998.78;;;7.59;66.06
59272;BME280;45043;51.068;7.026;2022-12-20T15:45:01;99997.53;;;7.55;66.20
59272;BME280;45043;51.068;7.026;2022-12-20T15:48:01;99997.06;;;7.51;66.36
59272;BME280;45043;51.068;7.026;2022-12-20T15:51:06;100008.66;;;7.50;66.29
59272;BME280;45043;51.068;7.026;2022-12-20T15:54:25;100003.53;;;7.49;66.04
59272;BME280;45043;51.068;7.026;2022-12-20T15:57:26;99996.72;;;7.54;66.09
59272;BME280;45043;51.068;7.026;2022-12-20T16:00:27;99978.13;;;7.48;66.17
59272;BME280;45043;51.068;7.026;2022-12-20T16:03:30;99982.84;;;7.52;66.13
59272;BME280;45043;51.068;7.026;2022-12-20T16:06:31;99977.94;;;7.49;66.18
59272;BME280;45043;51.068;7.026;2022-12-20T16:09:32;99986.50;;;7.51;66.10
59272;BME280;45043;51.068;7.026;2022-12-20T16:12:33;99988.13;;;7.52;66.26
59272;BME280;45043;51.068;7.026;2022-12-20T16:15:34;100001.72;;;7.49;66.02
59272;BME280;45043;51.068;7.026;2022-12-20T16:18:35;99992.97;;;7.49;66.72
59272;BME280;45043;51.068;7.026;2022-12-20T16:21:42;100000.91;;;7.49;66.17
59272;BME280;45043;51.068;7.026;2022-12-20T16:24:44;99993.34;;;7.46;66.52
59272;BME280;45043;51.068;7.026;2022-12-20T16:27:44;99981.91;;;7.39;66.51
59272;BME280;45043;51.068;7.026;2022-12-20T16:30:45;99995.75;;;7.41;66.52
59272;BME280;45043;51.068;7.026;2022-12-20T16:33:45;99983.91;;;7.37;66.58
59272;BME280;45043;51.068;7.026;2022-12-20T16:36:46;99990.09;;;7.44;66.62
59272;BME280;45043;51.068;7.026;2022-12-20T16:39:46;99980.25;;;7.38;66.80
59272;BME280;45043;51.068;7.026;2022-12-20T16:42:48;99986.44;;;7.45;66.67
59272;BME280;45043;51.068;7.026;2022-12-20T16:45:48;99981.50;;;7.42;66.64
59272;BME280;45043;51.068;7.026;2022-12-20T16:48:49;99974.53;;;7.34;66.68
59272;BME280;45043;51.068;7.026;2022-12-20T16:51:50;99980.69;;;7.41;66.93
59272;BME280;45043;51.068;7.026;2022-12-20T16:54:50;99973.72;;;7.33;67.04
59272;BME280;45043;51.068;7.026;2022-12-20T16:57:51;99985.16;;;7.41;67.18
59272;BME280;45043;51.068;7.026;2022-12-20T17:00:52;99984.09;;;7.35;67.11
59272;BME280;45043;51.068;7.026;2022-12-20T17:03:53;99992.84;;;7.35;67.27
59272;BME280;45043;51.068;7.026;2022-12-20T17:06:53;99988.00;;;7.39;67.12
59272;BME280;45043;51.068;7.026;2022-12-20T17:09:54;99971.06;;;7.33;67.04
59272;BME280;45043;51.068;7.026;2022-12-20T17:12:55;99981.50;;;7.42;67.33
59272;BME280;45043;51.068;7.026;2022-12-20T17:15:55;99984.81;;;7.44;67.43
59272;BME280;45043;51.068;7.026;2022-12-20T17:18:56;99984.34;;;7.40;67.23
59272;BME280;45043;51.068;7.026;2022-12-20T17:21:59;99983.97;;;7.43;67.38
59272;BME280;45043;51.068;7.026;2022-12-20T17:25:00;99976.22;;;7.42;67.45
59272;BME280;45043;51.068;7.026;2022-12-20T17:28:00;99981.06;;;7.38;67.58
59272;BME280;45043;51.068;7.026;2022-12-20T17:31:00;99970.25;;;7.33;67.76
59272;BME280;45043;51.068;7.026;2022-12-20T17:34:02;99968.13;;;7.43;67.72
59272;BME280;45043;51.068;7.026;2022-12-20T17:37:02;99964.28;;;7.46;67.44
59272;BME280;45043;51.068;7.026;2022-12-20T17:40:03;99960.81;;;7.45;67.46
59272;BME280;45043;51.068;7.026;2022-12-20T17:43:03;99963.66;;;7.44;67.44
59272;BME280;45043;51.068;7.026;2022-12-20T17:46:05;99954.72;;;7.45;67.70
59272;BME280;45043;51.068;7.026;2022-12-20T17:49:06;99944.50;;;7.42;67.90